Time;durP1;ratioP1;P1;durP2;ratioP2;P2;SDS_P1;SDS_P2;PMS_P1;PMS_P2;Temp;Humidity;BMP_temperature;BMP_pressure;BME280_temperature;BME280_humidity;BME280_pressure;Samples;Min_cycle;Max_cycle;Signal;HPM_P1;HPM_P2
2023/06/12 00:01:19;;;;;;;5.32;4.55;;;21.90;68.90;;;;;;5063649;28;20044;-56
2023/06/12 00:03:47;;;;;;;10.45;4.78;;;21.90;69.10;;;;;;5075854;28;20494;-56
2023/06/12 00:06:15;;;;;;;6.15;4.35;;;21.80;69.30;;;;;;5057284;28;20072;-55
2023/06/12 00:08:42;;;;;;;8.63;4.45;;;21.80;69.60;;;;;;5060797;28;20051;-56
2023/06/12 00:11:12;;;;;;;7.85;4.43;;;21.80;69.70;;;;;;5067104;28;20051;-56
2023/06/12 00:13:39;;;;;;;8.05;5.40;;;21.70;69.60;;;;;;5065726;28;20036;-57
2023/06/12 00:16:05;;;;;;;10.90;5.20;;;21.70;69.80;;;;;;5069701;28;20094;-56
2023/06/12 00:18:30;;;;;;;6.70;5.35;;;21.70;70.00;;;;;;5071905;28;20041;-56
2023/06/12 00:20:56;;;;;;;5.40;4.68;;;21.60;69.90;;;;;;5059145;28;20045;-56
2023/06/12 00:23:22;;;;;;;9.88;5.28;;;21.60;70.10;;;;;;5065618;28;20091;-56
2023/06/12 00:25:47;;;;;;;7.60;4.57;;;21.50;70.10;;;;;;5071208;28;20060;-56
2023/06/12 00:28:13;;;;;;;5.85;4.78;;;21.50;70.30;;;;;;5076890;28;20072;-56
2023/06/12 00:30:39;;;;;;;6.57;4.90;;;21.50;70.70;;;;;;5060155;28;20542;-57
2023/06/12 00:33:05;;;;;;;6.95;4.70;;;21.40;70.70;;;;;;5058654;28;20071;-56
2023/06/12 00:35:30;;;;;;;5.50;4.55;;;21.40;70.80;;;;;;5058868;28;20037;-57
2023/06/12 00:37:56;;;;;;;6.50;4.75;;;21.30;70.80;;;;;;5076595;28;20048;-57
2023/06/12 00:40:22;;;;;;;7.10;5.32;;;21.30;70.90;;;;;;5076231;28;20045;-57
2023/06/12 00:42:50;;;;;;;7.95;4.85;;;21.20;71.10;;;;;;5075918;28;20072;-57
2023/06/12 00:45:18;;;;;;;6.80;4.57;;;21.20;71.30;;;;;;5057225;28;20114;-57
2023/06/12 00:48:03;;;;;;;8.30;4.50;;;21.10;71.30;;;;;;5058385;28;20041;-56
2023/06/12 00:50:29;;;;;;;6.35;4.65;;;21.10;72.30;;;;;;5069548;28;20037;-56
2023/06/12 00:52:57;;;;;;;7.85;4.75;;;21.00;71.80;;;;;;5061645;28;20056;-57
2023/06/12 00:55:24;;;;;;;5.93;4.68;;;21.00;71.90;;;;;;5058486;28;20045;-57
2023/06/12 00:57:51;;;;;;;7.95;4.93;;;20.90;71.90;;;;;;5063439;28;20032;-56
2023/06/12 01:00:18;;;;;;;7.68;4.57;;;20.90;71.90;;;;;;5067405;28;20063;-56
2023/06/12 01:02:55;;;;;;;7.13;4.70;;;20.80;72.00;;;;;;5076447;28;20045;-56
2023/06/12 01:05:32;;;;;;;5.45;4.18;;;20.80;72.30;;;;;;5061259;28;20041;-56
2023/06/12 01:08:09;;;;;;;7.05;4.50;;;20.70;72.20;;;;;;5061160;28;20049;-56
2023/06/12 01:10:40;;;;;;;7.93;4.55;;;20.60;72.30;;;;;;5061736;28;20061;-55
2023/06/12 01:13:09;;;;;;;6.00;4.20;;;20.50;72.60;;;;;;5062544;28;20071;-56
2023/06/12 01:15:36;;;;;;;5.60;4.07;;;20.50;72.70;;;;;;5062886;28;20071;-57
2023/06/12 01:18:02;;;;;;;8.00;4.22;;;20.40;72.80;;;;;;5079832;28;20049;-56
2023/06/12 01:20:28;;;;;;;6.80;4.30;;;20.40;72.80;;;;;;5061831;28;20045;-55
2023/06/12 01:23:09;;;;;;;7.65;4.03;;;20.30;72.90;;;;;;5061777;28;20064;-56
2023/06/12 01:26:12;;;;;;;7.57;4.82;;;20.30;73.00;;;;;;5062607;28;20080;-55
2023/06/12 01:29:08;;;;;;;6.97;4.28;;;20.30;73.20;;;;;;5061431;28;20064;-56
2023/06/12 01:31:56;;;;;;;7.13;3.60;;;20.20;73.20;;;;;;5067688;28;20040;-56
2023/06/12 01:34:32;;;;;;;4.55;3.60;;;20.20;73.40;;;;;;5079481;28;20057;-55
2023/06/12 01:37:05;;;;;;;;;;;20.20;73.40;;;;;;5078054;28;20045;-56
2023/06/12 01:39:38;;;;;;;7.95;3.78;;;20.10;73.20;;;;;;5079998;28;20055;-57
2023/06/12 01:42:07;;;;;;;8.50;3.85;;;20.10;73.50;;;;;;5070325;28;20051;-56
2023/06/12 01:44:33;;;;;;;6.82;3.40;;;20.00;73.70;;;;;;5065887;28;20123;-56
2023/06/12 01:46:59;;;;;;;4.60;3.42;;;20.00;73.90;;;;;;5061009;28;20037;-55
2023/06/12 01:49:25;;;;;;;6.15;3.60;;;20.00;73.90;;;;;;5070797;28;20072;-56
2023/06/12 01:51:50;;;;;;;5.18;3.40;;;19.90;74.00;;;;;;5071088;28;20045;-56
2023/06/12 01:54:18;;;;;;;5.22;3.00;;;19.90;74.10;;;;;;5066106;28;20040;-55
2023/06/12 01:56:44;;;;;;;6.03;3.08;;;19.90;74.10;;;;;;5069305;28;20041;-56
2023/06/12 01:59:11;;;;;;;5.28;3.00;;;19.90;74.20;;;;;;5060595;28;20067;-56
2023/06/12 02:01:38;;;;;;;8.48;3.53;;;19.80;74.20;;;;;;5063301;28;20405;-56
2023/06/12 02:04:04;;;;;;;6.68;3.33;;;19.80;74.40;;;;;;5077964;28;20113;-56
2023/06/12 02:06:30;;;;;;;7.45;3.42;;;19.80;74.60;;;;;;5060813;28;20409;-56
2023/06/12 02:08:56;;;;;;;5.80;3.28;;;19.80;74.80;;;;;;5079055;28;20024;-56
2023/06/12 02:11:21;;;;;;;5.95;3.13;;;19.70;74.80;;;;;;5069881;28;20115;-56
2023/06/12 02:13:47;;;;;;;5.00;3.50;;;19.70;74.80;;;;;;5064485;28;20037;-56
2023/06/12 02:16:16;;;;;;;5.97;3.70;;;19.70;74.90;;;;;;5070267;28;20040;-56
2023/06/12 02:18:41;;;;;;;7.05;3.35;;;19.70;75.10;;;;;;5069762;28;20047;-56
2023/06/12 02:21:07;;;;;;;7.18;3.22;;;19.60;75.20;;;;;;5069156;28;20049;-56
2023/06/12 02:23:33;;;;;;;7.55;3.05;;;19.60;75.40;;;;;;5062039;28;20045;-55
2023/06/12 02:25:58;;;;;;;8.73;3.63;;;19.50;75.60;;;;;;5067832;28;20071;-56
2023/06/12 02:28:24;;;;;;;7.30;3.03;;;19.00;75.40;;;;;;5079109;28;20063;-56
2023/06/12 02:30:50;;;;;;;6.35;3.22;;;19.40;75.80;;;;;;5066783;28;20043;-56
2023/06/12 02:33:15;;;;;;;6.18;3.22;;;19.30;76.00;;;;;;5065744;28;20059;-56
2023/06/12 02:35:42;;;;;;;7.88;3.17;;;19.40;76.30;;;;;;5072921;28;20055;-55
2023/06/12 02:38:08;;;;;;;5.93;3.40;;;19.30;76.30;;;;;;5068988;28;20045;-56
2023/06/12 02:40:33;;;;;;;6.30;3.30;;;19.20;77.10;;;;;;5072539;28;20063;-56
2023/06/12 02:42:59;;;;;;;4.97;2.85;;;19.20;76.60;;;;;;5074654;28;20040;-56
2023/06/12 02:45:26;;;;;;;7.40;3.10;;;19.20;76.80;;;;;;5079882;28;20051;-55
2023/06/12 02:47:51;;;;;;;6.13;3.47;;;19.20;76.90;;;;;;5064026;28;20041;-56
2023/06/12 02:50:17;;;;;;;4.15;2.92;;;19.10;77.00;;;;;;5066997;28;20095;-56
2023/06/12 02:52:43;;;;;;;4.95;2.85;;;19.10;77.10;;;;;;5080144;28;20071;-56
2023/06/12 02:55:09;;;;;;;7.30;2.97;;;19.10;77.20;;;;;;5080169;28;20467;-56
2023/06/12 02:57:35;;;;;;;4.75;3.00;;;19.10;77.40;;;;;;5077495;28;20048;-56
2023/06/12 03:00:01;;;;;;;6.45;2.90;;;19.00;77.60;;;;;;5063924;28;20052;-56
2023/06/12 03:02:27;;;;;;;6.25;3.40;;;19.00;77.70;;;;;;5059659;28;20583;-56
2023/06/12 03:04:54;;;;;;;6.60;2.92;;;19.00;77.80;;;;;;5060302;28;20041;-56
2023/06/12 03:07:21;;;;;;;5.95;3.22;;;18.90;78.00;;;;;;5060375;28;20056;-56
2023/06/12 03:09:47;;;;;;;6.13;3.00;;;18.90;78.20;;;;;;5059944;28;20045;-56
2023/06/12 03:12:13;;;;;;;6.75;3.00;;;18.90;78.80;;;;;;5059988;28;20102;-56
2023/06/12 03:14:38;;;;;;;5.32;3.33;;;18.90;78.30;;;;;;5059795;28;20043;-56
2023/06/12 03:17:05;;;;;;;5.40;3.30;;;18.80;78.20;;;;;;5079384;28;20033;-56
2023/06/12 03:19:31;;;;;;;5.88;3.50;;;18.80;78.40;;;;;;5079574;28;20098;-56
2023/06/12 03:21:58;;;;;;;6.50;3.20;;;18.80;78.40;;;;;;5079748;28;20076;-54
2023/06/12 03:24:26;;;;;;;6.55;3.10;;;18.80;78.50;;;;;;5071391;28;20036;-56
2023/06/12 03:26:53;;;;;;;6.00;3.30;;;18.80;78.70;;;;;;5058073;28;20088;-56
2023/06/12 03:29:18;;;;;;;7.40;3.35;;;18.80;78.70;;;;;;5059590;28;20041;-55
2023/06/12 03:31:45;;;;;;;6.13;3.10;;;18.80;79.00;;;;;;5057601;28;20119;-56
2023/06/12 03:34:11;;;;;;;9.02;3.00;;;18.70;79.00;;;;;;5059954;28;20484;-55
2023/06/12 03:36:37;;;;;;;6.70;2.90;;;18.70;79.10;;;;;;5075875;28;20080;-55
2023/06/12 03:39:03;;;;;;;5.05;2.90;;;18.70;79.20;;;;;;5079662;28;20041;-56
2023/06/12 03:41:31;;;;;;;12.25;3.38;;;18.60;79.40;;;;;;5069046;28;20043;-56
2023/06/12 03:43:57;;;;;;;9.00;3.45;;;18.60;79.70;;;;;;5069165;28;20048;-56
2023/06/12 03:46:23;;;;;;;5.72;3.05;;;18.60;79.80;;;;;;5079193;28;20045;-55
2023/06/12 03:48:49;;;;;;;6.63;3.15;;;18.50;79.90;;;;;;5073946;28;20036;-56
2023/06/12 03:51:15;;;;;;;6.32;3.15;;;18.50;79.80;;;;;;5079056;28;20048;-56
2023/06/12 03:53:41;;;;;;;4.90;3.30;;;18.50;79.90;;;;;;5078832;28;20380;-56
2023/06/12 03:56:07;;;;;;;7.40;3.10;;;18.50;80.00;;;;;;5067101;28;20064;-56
2023/06/12 03:58:33;;;;;;;6.95;2.95;;;18.50;80.20;;;;;;5067370;28;20043;-56
2023/06/12 04:00:59;;;;;;;5.95;3.10;;;18.50;80.30;;;;;;5059051;28;20049;-54
2023/06/12 04:03:25;;;;;;;9.50;3.40;;;18.50;80.40;;;;;;5064600;28;20080;-56
2023/06/12 04:05:51;;;;;;;6.60;3.13;;;18.40;80.40;;;;;;5065229;28;20128;-56
2023/06/12 04:08:17;;;;;;;6.90;3.25;;;18.40;80.70;;;;;;5062854;28;20096;-56
2023/06/12 04:10:44;;;;;;;5.38;3.20;;;18.40;80.90;;;;;;5074480;28;20044;-56
2023/06/12 04:13:10;;;;;;;6.97;2.88;;;18.40;81.00;;;;;;5076444;28;20120;-56
2023/06/12 04:15:37;;;;;;;7.18;3.40;;;18.30;81.30;;;;;;5057907;28;20443;-56
2023/06/12 04:18:04;;;;;;;7.75;3.35;;;18.30;81.40;;;;;;5064938;28;20128;-56
2023/06/12 04:20:32;;;;;;;5.30;3.05;;;18.30;81.70;;;;;;5056828;28;20044;-56
2023/06/12 04:22:58;;;;;;;6.25;3.20;;;18.30;81.80;;;;;;5063870;28;20515;-56
2023/06/12 04:25:28;;;;;;;5.38;3.30;;;18.30;81.80;;;;;;5073509;28;20115;-56
2023/06/12 04:27:53;;;;;;;7.35;3.10;;;18.30;82.10;;;;;;5076564;28;20055;-56
2023/06/12 04:30:21;;;;;;;9.43;3.95;;;18.30;82.40;;;;;;5060929;28;20041;-56
2023/06/12 04:32:48;;;;;;;6.15;2.97;;;18.30;82.50;;;;;;5060115;28;20075;-57
2023/06/12 04:35:16;;;;;;;6.45;3.20;;;18.30;82.40;;;;;;5060143;28;20119;-56
2023/06/12 04:37:42;;;;;;;6.80;3.08;;;18.30;82.50;;;;;;5062280;28;20063;-56
2023/06/12 04:40:11;;;;;;;7.10;3.70;;;18.30;82.70;;;;;;5066497;28;20097;-57
2023/06/12 04:42:37;;;;;;;6.78;2.97;;;18.30;82.80;;;;;;5079009;28;20040;-56
2023/06/12 04:45:04;;;;;;;5.70;3.30;;;18.30;82.90;;;;;;5068638;28;20477;-56
2023/06/12 04:47:30;;;;;;;8.27;3.95;;;18.30;83.00;;;;;;5069033;28;20051;-56
2023/06/12 04:49:59;;;;;;;10.00;3.63;;;18.30;83.20;;;;;;5076102;28;20044;-56
2023/06/12 04:52:25;;;;;;;5.97;3.40;;;18.30;83.60;;;;;;5069313;28;20119;-56
2023/06/12 04:54:52;;;;;;;11.20;3.20;;;18.30;83.80;;;;;;5078308;28;20048;-56
2023/06/12 04:57:18;;;;;;;6.05;3.38;;;18.30;83.80;;;;;;5068123;28;20045;-56
2023/06/12 04:59:45;;;;;;;7.70;3.40;;;18.30;83.90;;;;;;5065830;28;20089;-56
2023/06/12 05:02:12;;;;;;;7.38;3.90;;;18.30;84.00;;;;;;5062306;28;20040;-56
2023/06/12 05:04:41;;;;;;;7.55;3.10;;;18.40;84.10;;;;;;5063684;28;20067;-57
2023/06/12 05:07:16;;;;;;;6.85;3.30;;;18.30;84.40;;;;;;5065134;28;20036;-56
2023/06/12 05:09:45;;;;;;;6.97;3.58;;;18.30;84.70;;;;;;5074573;28;20041;-56
2023/06/12 05:12:11;;;;;;;9.52;3.53;;;18.30;84.90;;;;;;5070361;28;20048;-57
2023/06/12 05:14:39;;;;;;;7.20;3.17;;;18.30;85.10;;;;;;5075938;28;20062;-56
2023/06/12 05:17:05;;;;;;;5.93;3.28;;;18.40;85.20;;;;;;5061540;28;20429;-56
2023/06/12 05:19:30;;;;;;;5.95;3.65;;;18.40;85.40;;;;;;5071976;28;20047;-56
2023/06/12 05:21:56;;;;;;;6.68;3.70;;;18.40;85.70;;;;;;5072158;28;20037;-56
2023/06/12 05:24:22;;;;;;;9.63;3.35;;;18.40;85.60;;;;;;5067390;28;20091;-57
2023/06/12 05:26:47;;;;;;;8.90;4.03;;;18.50;85.60;;;;;;5071074;28;20059;-56
2023/06/12 05:29:13;;;;;;;9.38;3.60;;;18.50;85.50;;;;;;5073625;28;20161;-56
2023/06/12 05:31:39;;;;;;;7.28;3.38;;;18.60;86.20;;;;;;5081481;28;20044;-56
2023/06/12 05:34:05;;;;;;;6.63;3.35;;;18.60;85.60;;;;;;5074207;28;20072;-56
2023/06/12 05:36:30;;;;;;;6.75;3.45;;;18.70;85.70;;;;;;5060792;28;20063;-56
2023/06/12 05:38:56;;;;;;;5.75;3.22;;;18.70;85.80;;;;;;5061906;28;20037;-57
2023/06/12 05:41:22;;;;;;;4.60;2.92;;;18.80;85.80;;;;;;5061088;28;20545;-56
2023/06/12 05:43:47;;;;;;;6.18;2.95;;;18.90;85.80;;;;;;5061876;28;20105;-56
2023/06/12 05:46:13;;;;;;;10.52;3.30;;;18.90;86.40;;;;;;5061698;28;20044;-56
2023/06/12 05:48:39;;;;;;;9.25;3.50;;;18.90;85.80;;;;;;5061359;28;20037;-56
2023/06/12 05:51:07;;;;;;;7.95;3.53;;;19.00;85.90;;;;;;5061608;28;20041;-56
2023/06/12 05:53:33;;;;;;;11.18;3.70;;;19.00;86.00;;;;;;5060062;28;20045;-56
2023/06/12 05:55:59;;;;;;;6.35;3.10;;;19.10;86.00;;;;;;5061323;28;20397;-56
2023/06/12 05:58:25;;;;;;;8.45;3.60;;;19.20;86.00;;;;;;5061110;28;20051;-56
2023/06/12 06:00:52;;;;;;;5.82;3.58;;;19.30;86.00;;;;;;5061241;28;20090;-56
2023/06/12 06:03:19;;;;;;;5.97;3.40;;;19.30;86.50;;;;;;5061433;28;20488;-56
2023/06/12 06:05:46;;;;;;;8.98;3.90;;;19.40;86.00;;;;;;5061069;28;20040;-56
2023/06/12 06:08:12;;;;;;;6.63;3.20;;;19.50;86.00;;;;;;5061390;28;20074;-56
2023/06/12 06:10:38;;;;;;;15.40;4.05;;;19.50;86.00;;;;;;5060468;28;20056;-56
2023/06/12 06:13:04;;;;;;;8.25;3.60;;;19.60;86.20;;;;;;5061339;28;20048;-57
2023/06/12 06:15:30;;;;;;;8.38;3.17;;;19.60;86.20;;;;;;5060471;28;20064;-56
2023/06/12 06:17:56;;;;;;;6.60;3.50;;;19.70;86.00;;;;;;5059667;28;20048;-56
2023/06/12 06:20:22;;;;;;;8.23;3.35;;;19.80;86.00;;;;;;5061138;28;20083;-56
2023/06/12 06:22:48;;;;;;;8.02;3.53;;;19.90;86.10;;;;;;5060729;28;20029;-56
2023/06/12 06:25:15;;;;;;;5.28;3.92;;;19.90;86.10;;;;;;5075573;28;20049;-56
2023/06/12 06:27:41;;;;;;;6.00;3.25;;;20.00;86.00;;;;;;5080382;28;20127;-56
2023/06/12 06:30:07;;;;;;;5.00;3.28;;;20.20;85.90;;;;;;5081090;28;20051;-56
2023/06/12 06:32:33;;;;;;;10.75;3.72;;;20.30;85.60;;;;;;5080219;28;20048;-58
2023/06/12 06:34:59;;;;;;;5.45;3.35;;;20.50;85.40;;;;;;5079561;28;20041;-56
2023/06/12 06:37:24;;;;;;;9.23;3.95;;;20.70;85.20;;;;;;5076675;28;20077;-57
2023/06/12 06:39:50;;;;;;;7.53;3.45;;;20.80;84.80;;;;;;5060656;28;20037;-56
2023/06/12 06:42:16;;;;;;;11.43;3.70;;;21.00;84.40;;;;;;5060780;28;20089;-55
2023/06/12 06:44:41;;;;;;;10.15;3.97;;;21.20;84.20;;;;;;5060157;28;20471;-56
2023/06/12 06:47:11;;;;;;;4.70;3.25;;;21.40;83.60;;;;;;5060544;28;20084;-56
2023/06/12 06:49:38;;;;;;;9.38;4.13;;;21.70;83.20;;;;;;5060060;28;20049;-56
2023/06/12 06:52:04;;;;;;;6.28;3.47;;;21.90;82.80;;;;;;5060111;28;20101;-56
2023/06/12 06:54:30;;;;;;;11.02;3.97;;;22.10;82.50;;;;;;5063888;28;20078;-56
2023/06/12 06:56:56;;;;;;;8.07;3.60;;;22.30;81.90;;;;;;5080025;28;20095;-56
2023/06/12 06:59:23;;;;;;;6.90;3.50;;;22.60;82.00;;;;;;5080468;28;20059;-56
2023/06/12 07:01:49;;;;;;;4.28;3.10;;;22.70;81.60;;;;;;5079801;28;20041;-56
2023/06/12 07:04:14;;;;;;;7.53;3.80;;;22.90;81.30;;;;;;5080597;28;20040;-56
2023/06/12 07:06:40;;;;;;;6.43;3.30;;;23.10;80.60;;;;;;5079385;28;20075;-57
2023/06/12 07:09:07;;;;;;;7.70;4.15;;;23.30;80.20;;;;;;5080364;28;20032;-57
2023/06/12 07:11:34;;;;;;;6.80;3.92;;;23.50;79.80;;;;;;5078573;28;20097;-56
2023/06/12 07:13:59;;;;;;;6.35;3.65;;;23.70;79.30;;;;;;5080001;28;20052;-57
2023/06/12 07:16:26;;;;;;;5.38;3.83;;;23.90;79.50;;;;;;5079926;28;20546;-56
2023/06/12 07:18:52;;;;;;;8.02;3.80;;;24.00;79.50;;;;;;5079740;28;20040;-56
2023/06/12 07:21:17;;;;;;;7.93;3.78;;;24.10;79.30;;;;;;5079839;28;20051;-56
2023/06/12 07:23:43;;;;;;;7.25;3.70;;;24.20;79.20;;;;;;5079420;28;20158;-57
2023/06/12 07:26:09;;;;;;;8.75;3.72;;;24.40;78.70;;;;;;5079860;28;20048;-57
2023/06/12 07:28:35;;;;;;;6.82;3.80;;;24.50;78.00;;;;;;5078447;28;20322;-57
2023/06/12 07:31:01;;;;;;;6.78;3.55;;;24.70;77.20;;;;;;5079352;28;20048;-57
2023/06/12 07:33:27;;;;;;;5.55;3.78;;;24.80;77.20;;;;;;5079734;28;20577;-56
2023/06/12 07:35:52;;;;;;;5.55;4.00;;;25.00;77.00;;;;;;5079359;28;20048;-57
2023/06/12 07:38:19;;;;;;;6.32;3.83;;;25.30;76.70;;;;;;5079949;28;20064;-57
2023/06/12 07:40:44;;;;;;;8.75;3.40;;;25.60;76.80;;;;;;5078893;28;20054;-57
2023/06/12 07:43:10;;;;;;;7.03;3.85;;;25.90;76.70;;;;;;5074316;28;20136;-57
2023/06/12 07:45:36;;;;;;;6.03;3.90;;;26.20;76.40;;;;;;5059247;28;20059;-57
2023/06/12 07:48:02;;;;;;;6.07;3.95;;;26.60;75.70;;;;;;5059434;28;20500;-57
2023/06/12 07:50:27;;;;;;;7.03;4.03;;;26.80;74.70;;;;;;5058900;28;20037;-56
2023/06/12 07:52:53;;;;;;;8.48;3.97;;;27.00;74.10;;;;;;5058948;28;20048;-56
2023/06/12 07:55:19;;;;;;;7.63;3.53;;;27.20;73.70;;;;;;5059328;28;20047;-57
2023/06/12 07:57:47;;;;;;;6.15;3.63;;;27.30;73.20;;;;;;5058907;28;20044;-57
2023/06/12 08:00:13;;;;;;;5.60;3.75;;;27.40;72.90;;;;;;5059258;28;20045;-56
2023/06/12 08:02:40;;;;;;;5.85;3.78;;;27.50;72.70;;;;;;5059029;28;20033;-56
2023/06/12 08:05:07;;;;;;;6.95;3.80;;;27.80;72.30;;;;;;5059128;28;20041;-57
2023/06/12 08:07:33;;;;;;;9.48;4.22;;;28.00;71.90;;;;;;5058927;28;20041;-57
2023/06/12 08:10:00;;;;;;;6.05;4.25;;;28.10;71.60;;;;;;5058741;28;20045;-56
2023/06/12 08:12:26;;;;;;;8.60;4.10;;;28.20;71.10;;;;;;5059391;28;20045;-57
2023/06/12 08:14:53;;;;;;;5.60;3.70;;;28.30;71.00;;;;;;5058513;28;20056;-57
2023/06/12 08:17:20;;;;;;;6.93;3.60;;;28.30;70.20;;;;;;5058519;28;20049;-57
2023/06/12 08:19:48;;;;;;;7.30;3.80;;;28.30;69.60;;;;;;5058935;28;20100;-56
2023/06/12 08:22:15;;;;;;;6.65;3.88;;;28.40;70.00;;;;;;5058728;28;20044;-58
2023/06/12 08:24:43;;;;;;;7.38;4.35;;;28.60;69.60;;;;;;5058461;28;20049;-57
2023/06/12 08:27:11;;;;;;;7.10;4.05;;;28.80;69.00;;;;;;5058771;28;20053;-57
2023/06/12 08:29:39;;;;;;;5.97;3.80;;;29.00;68.90;;;;;;5059172;28;20056;-56
2023/06/12 08:32:06;;;;;;;8.55;3.60;;;29.00;68.20;;;;;;5058181;28;20122;-57
2023/06/12 08:34:32;;;;;;;8.32;3.90;;;29.10;68.10;;;;;;5059117;28;20051;-57
2023/06/12 08:36:58;;;;;;;7.45;4.03;;;29.20;67.90;;;;;;5058564;28;20076;-57
2023/06/12 08:39:23;;;;;;;6.72;3.90;;;29.30;67.40;;;;;;5058736;28;20063;-57
2023/06/12 08:42:05;;;;;;;6.28;4.10;;;29.40;67.10;;;;;;5058194;28;20136;-57
2023/06/12 08:44:31;;;;;;;8.80;4.05;;;29.50;66.60;;;;;;5058525;28;20056;-57
2023/06/12 08:47:00;;;;;;;8.55;4.30;;;29.70;66.50;;;;;;5059068;28;20124;-57
2023/06/12 08:49:27;;;;;;;6.28;3.90;;;29.80;66.20;;;;;;5058193;28;20406;-57
2023/06/12 08:51:52;;;;;;;7.40;3.88;;;30.00;66.00;;;;;;5058555;28;20037;-57
2023/06/12 08:54:18;;;;;;;7.30;4.05;;;30.20;65.40;;;;;;5068699;28;20439;-57
2023/06/12 08:56:46;;;;;;;10.48;4.18;;;30.20;65.30;;;;;;5078373;28;20032;-56
2023/06/12 08:59:13;;;;;;;6.32;4.28;;;30.20;65.00;;;;;;5078834;28;20058;-56
2023/06/12 09:01:40;;;;;;;7.95;4.57;;;30.20;64.60;;;;;;5076956;28;20044;-57
2023/06/12 09:04:13;;;;;;;8.07;3.95;;;30.20;64.00;;;;;;5078813;28;20070;-61
2023/06/12 09:06:42;;;;;;;6.30;3.92;;;30.20;62.60;;;;;;5077933;28;20048;-57
2023/06/12 09:09:08;;;;;;;8.43;4.25;;;30.20;63.00;;;;;;5078653;28;20052;-57
2023/06/12 09:11:37;;;;;;;4.75;4.28;;;30.30;63.20;;;;;;5077056;28;20150;-57
2023/06/12 09:14:03;;;;;;;4.63;4.00;;;30.30;63.40;;;;;;5078739;28;20067;-56
2023/06/12 09:16:30;;;;;;;7.57;4.28;;;30.40;63.40;;;;;;5078469;28;20042;-56
2023/06/12 09:18:56;;;;;;;8.30;4.63;;;30.50;63.80;;;;;;5078062;28;20071;-57
2023/06/12 09:21:23;;;;;;;8.73;4.25;;;30.50;63.70;;;;;;5078344;28;20044;-57
2023/06/12 09:23:55;;;;;;;8.48;4.22;;;30.60;63.60;;;;;;5078008;28;20048;-57
2023/06/12 09:26:22;;;;;;;9.60;4.25;;;30.70;63.40;;;;;;5076885;28;20119;-57
2023/06/12 09:28:52;;;;;;;6.30;4.47;;;30.80;63.20;;;;;;5078729;28;20044;-57
2023/06/12 09:31:17;;;;;;;7.50;4.45;;;30.90;62.70;;;;;;5081959;28;20067;-57
2023/06/12 09:33:44;;;;;;;7.47;4.57;;;30.90;62.40;;;;;;5082164;28;20492;-57
2023/06/12 09:36:12;;;;;;;6.97;5.13;;;30.90;62.50;;;;;;5081688;28;20052;-56
2023/06/12 09:38:38;;;;;;;6.68;4.80;;;30.90;62.40;;;;;;5082333;28;20142;-57
2023/06/12 09:41:06;;;;;;;6.22;4.78;;;30.90;61.50;;;;;;5081277;28;20033;-57
2023/06/12 09:43:33;;;;;;;9.60;4.90;;;30.90;60.80;;;;;;5073252;28;20044;-56
2023/06/12 09:46:03;;;;;;;6.05;4.65;;;30.80;60.70;;;;;;5060491;28;20158;-57
2023/06/12 09:48:34;;;;;;;5.72;5.05;;;30.80;60.00;;;;;;5061506;28;20049;-57
2023/06/12 09:51:09;;;;;;;6.35;5.28;;;30.70;60.10;;;;;;5061708;28;20056;-57
2023/06/12 09:53:36;;;;;;;;;;;30.70;60.00;;;;;;5061577;28;20045;-58
2023/06/12 09:56:07;;;;;;;11.10;5.25;;;30.60;60.00;;;;;;5063860;28;19925;-57
2023/06/12 09:58:37;;;;;;;6.75;4.90;;;30.70;59.90;;;;;;5081267;28;20110;-57
2023/06/12 10:01:06;;;;;;;6.32;4.90;;;30.60;58.40;;;;;;5079104;28;20104;-56
2023/06/12 10:03:37;;;;;;;5.93;4.50;;;30.50;59.80;;;;;;5061716;28;20155;-57
2023/06/12 10:06:06;;;;;;;5.65;5.05;;;30.50;60.70;;;;;;5060789;28;20068;-56
2023/06/12 10:08:33;;;;;;;5.97;4.82;;;30.50;61.50;;;;;;5061545;28;20100;-57
2023/06/12 10:10:59;;;;;;;6.72;4.85;;;30.50;61.00;;;;;;5060471;28;20049;-56
2023/06/12 10:13:25;;;;;;;7.30;5.15;;;30.50;60.20;;;;;;5061333;28;20041;-57
2023/06/12 10:15:52;;;;;;;8.45;5.25;;;30.60;60.30;;;;;;5060840;28;20037;-57
2023/06/12 10:18:19;;;;;;;7.38;5.30;;;30.60;59.20;;;;;;5061503;28;20078;-58
2023/06/12 10:20:46;;;;;;;10.00;5.05;;;30.50;58.50;;;;;;5060928;28;20457;-56
2023/06/12 10:23:12;;;;;;;7.35;5.05;;;30.40;58.70;;;;;;5060560;28;20045;-57
2023/06/12 10:25:38;;;;;;;6.53;5.35;;;30.40;57.00;;;;;;5061119;28;20064;-57
2023/06/12 10:28:06;;;;;;;8.15;5.45;;;30.30;56.40;;;;;;5058842;28;20049;-57
2023/06/12 10:30:31;;;;;;;7.88;5.50;;;30.20;56.50;;;;;;5059393;28;20045;-57
2023/06/12 10:33:08;;;;;;;5.22;4.72;;;30.10;57.30;;;;;;5061116;28;20041;-57
2023/06/12 10:35:34;;;;;;;7.50;5.65;;;30.00;58.00;;;;;;5063095;28;20443;-57
2023/06/12 10:38:02;;;;;;;7.80;5.32;;;30.00;57.80;;;;;;5075956;28;20045;-56
2023/06/12 10:40:29;;;;;;;6.85;5.15;;;29.90;56.80;;;;;;5063323;28;20055;-57
2023/06/12 10:42:54;;;;;;;7.07;5.00;;;29.80;57.00;;;;;;5065817;28;20040;-57
2023/06/12 10:45:28;;;;;;;6.22;4.65;;;29.80;56.70;;;;;;5063214;28;20041;-57
2023/06/12 10:48:05;;;;;;;6.35;4.88;;;29.70;56.80;;;;;;5058205;28;20045;-57
2023/06/12 10:50:43;;;;;;;6.15;5.25;;;29.60;56.70;;;;;;5061292;28;20073;-57
2023/06/12 10:53:20;;;;;;;9.82;5.25;;;29.50;56.50;;;;;;5059322;28;20529;-57
2023/06/12 10:55:46;;;;;;;6.10;5.13;;;29.50;56.50;;;;;;5065336;28;20062;-57
2023/06/12 10:58:15;;;;;;;7.47;4.63;;;29.50;57.10;;;;;;5078031;28;20037;-56
2023/06/12 11:00:49;;;;;;;6.60;4.40;;;29.40;56.10;;;;;;5064343;28;20100;-56
2023/06/12 11:03:26;;;;;;;5.45;4.53;;;29.50;55.40;;;;;;5077735;28;20075;-57
2023/06/12 11:05:55;;;;;;;6.60;5.20;;;29.50;55.20;;;;;;5069303;28;20052;-57
2023/06/12 11:08:23;;;;;;;8.05;5.40;;;29.50;55.20;;;;;;5070172;28;20079;-56
2023/06/12 11:10:49;;;;;;;7.22;5.78;;;29.50;55.40;;;;;;5068888;28;20495;-57
2023/06/12 11:13:15;;;;;;;6.22;5.30;;;29.50;55.80;;;;;;5067368;28;20043;-57
2023/06/12 11:15:43;;;;;;;5.50;5.00;;;29.50;56.30;;;;;;5078449;28;20033;-57
2023/06/12 11:18:10;;;;;;;7.15;5.00;;;29.50;56.60;;;;;;5069004;28;20045;-57
2023/06/12 11:20:35;;;;;;;6.95;5.00;;;29.60;56.50;;;;;;5069022;28;20044;-57
2023/06/12 11:23:02;;;;;;;7.32;4.88;;;29.80;56.40;;;;;;5079497;28;20044;-58
2023/06/12 11:25:48;;;;;;;8.38;5.25;;;29.90;56.30;;;;;;5074851;28;20032;-58
2023/06/12 11:28:15;;;;;;;6.78;4.88;;;30.00;55.40;;;;;;5071538;28;20087;-57
2023/06/12 11:30:47;;;;;;;8.13;5.10;;;30.00;54.90;;;;;;5078678;28;20052;-58
2023/06/12 11:33:15;;;;;;;6.35;5.20;;;30.10;54.80;;;;;;5068102;28;20064;-57
2023/06/12 11:35:45;;;;;;;5.78;5.10;;;30.10;55.10;;;;;;5060616;28;20048;-57
2023/06/12 11:38:21;;;;;;;5.93;5.38;;;30.20;53.50;;;;;;5069477;28;20036;-57
2023/06/12 11:40:48;;;;;;;6.20;5.18;;;30.10;53.60;;;;;;5077240;28;20076;-58
2023/06/12 11:43:19;;;;;;;7.80;5.68;;;30.20;54.40;;;;;;5061602;28;20116;-58
2023/06/12 11:45:45;;;;;;;6.13;5.32;;;30.30;53.70;;;;;;5068945;28;20404;-57
2023/06/12 11:48:16;;;;;;;8.65;5.97;;;30.40;54.40;;;;;;5060327;28;20044;-58
2023/06/12 11:50:46;;;;;;;7.60;6.07;;;30.50;54.30;;;;;;5063359;28;20096;-58
2023/06/12 11:53:13;;;;;;;6.22;5.40;;;30.50;53.60;;;;;;5061780;28;20103;-57
2023/06/12 11:55:39;;;;;;;7.35;5.45;;;30.60;53.70;;;;;;5069405;28;20551;-59
2023/06/12 11:58:05;;;;;;;7.68;5.82;;;30.60;52.00;;;;;;5063631;28;20037;-57
2023/06/12 12:00:33;;;;;;;9.90;5.20;;;30.80;51.10;;;;;;5072491;28;20032;-58
2023/06/12 12:03:01;;;;;;;8.27;5.50;;;30.80;49.00;;;;;;5070853;28;20045;-57
2023/06/12 12:05:33;;;;;;;9.30;6.18;;;30.80;48.60;;;;;;5065291;28;20500;-58
2023/06/12 12:08:03;;;;;;;8.35;6.28;;;30.70;48.70;;;;;;5057528;28;20041;-57
2023/06/12 12:10:30;;;;;;;6.50;5.40;;;30.80;49.20;;;;;;5059974;28;20072;-57
2023/06/12 12:12:59;;;;;;;6.15;5.00;;;30.90;49.80;;;;;;5066028;28;20041;-57
2023/06/12 12:15:26;;;;;;;6.35;5.68;;;30.90;49.60;;;;;;5061818;28;20048;-57
2023/06/12 12:17:52;;;;;;;6.28;5.13;;;31.00;49.70;;;;;;5063155;28;20498;-57
2023/06/12 12:20:23;;;;;;;5.18;4.65;;;31.00;50.10;;;;;;5077228;28;20500;-57
2023/06/12 12:22:59;;;;;;;5.93;5.13;;;31.10;49.40;;;;;;5068553;28;20076;-57
2023/06/12 12:25:27;;;;;;;7.13;5.53;;;31.30;49.00;;;;;;5064802;28;20040;-57
2023/06/12 12:27:54;;;;;;;6.03;4.90;;;31.40;48.60;;;;;;5067018;28;20071;-57
2023/06/12 12:30:21;;;;;;;6.80;5.50;;;31.60;48.60;;;;;;5057383;28;20037;-58
2023/06/12 12:32:52;;;;;;;5.85;5.00;;;31.80;49.30;;;;;;5073076;28;20460;-58
2023/06/12 12:35:19;;;;;;;7.00;4.57;;;32.00;49.10;;;;;;5061355;28;20048;-57
2023/06/12 12:37:46;;;;;;;6.53;5.05;;;32.20;48.90;;;;;;5064393;28;20093;-57
2023/06/12 12:40:13;;;;;;;5.70;4.80;;;32.50;48.60;;;;;;5071383;28;20497;-57
2023/06/12 12:42:49;;;;;;;6.35;4.72;;;32.70;48.80;;;;;;5067030;28;20091;-58
2023/06/12 12:45:16;;;;;;;7.00;4.03;;;33.00;48.70;;;;;;5065708;28;20036;-58
2023/06/12 12:47:49;;;;;;;7.10;4.80;;;33.10;48.50;;;;;;5065850;28;20048;-58
2023/06/12 12:50:17;;;;;;;6.18;4.28;;;33.30;48.90;;;;;;5060510;28;20064;-58